sensor_id;sensor_type;location;lat;lon;timestamp;P1;durP1;ratioP1;P2;durP2;ratioP2
57291;SDS011;43144;50.972;18.220;2023-04-20T00:06:40;44.40;;;40.20;;
57291;SDS011;43144;50.972;18.220;2023-04-20T00:23:51;51.70;;;44.40;;
57291;SDS011;43144;50.972;18.220;2023-04-20T00:33:40;52.90;;;44.40;;
57291;SDS011;43144;50.972;18.220;2023-04-20T00:43:29;46.30;;;41.30;;
57291;SDS011;43144;50.972;18.220;2023-04-20T00:53:18;54.60;;;49.30;;
57291;SDS011;43144;50.972;18.220;2023-04-20T01:03:08;51.00;;;45.60;;
57291;SDS011;43144;50.972;18.220;2023-04-20T01:12:59;53.80;;;48.30;;
57291;SDS011;43144;50.972;18.220;2023-04-20T01:22:49;77.60;;;52.30;;
57291;SDS011;43144;50.972;18.220;2023-04-20T01:32:39;58.70;;;52.30;;
57291;SDS011;43144;50.972;18.220;2023-04-20T01:42:29;61.30;;;54.60;;
57291;SDS011;43144;50.972;18.220;2023-04-20T01:49:51;70.20;;;63.30;;
57291;SDS011;43144;50.972;18.220;2023-04-20T01:59:41;64.30;;;57.50;;
57291;SDS011;43144;50.972;18.220;2023-04-20T02:16:52;63.60;;;49.00;;
57291;SDS011;43144;50.972;18.220;2023-04-20T02:26:42;59.50;;;52.50;;
57291;SDS011;43144;50.972;18.220;2023-04-20T02:36:31;67.60;;;56.30;;
57291;SDS011;43144;50.972;18.220;2023-04-20T02:46:20;87.90;;;63.70;;
57291;SDS011;43144;50.972;18.220;2023-04-20T02:56:09;112.20;;;74.00;;
57291;SDS011;43144;50.972;18.220;2023-04-20T03:05:58;108.60;;;74.50;;
57291;SDS011;43144;50.972;18.220;2023-04-20T03:15:47;107.00;;;74.40;;
57291;SDS011;43144;50.972;18.220;2023-04-20T03:25:37;47.20;;;34.90;;
57291;SDS011;43144;50.972;18.220;2023-04-20T03:35:26;99.80;;;70.90;;
57291;SDS011;43144;50.972;18.220;2023-04-20T03:42:49;127.40;;;92.90;;
57291;SDS011;43144;50.972;18.220;2023-04-20T03:52:38;107.40;;;73.10;;
57291;SDS011;43144;50.972;18.220;2023-04-20T04:02:30;130.90;;;80.80;;
57291;SDS011;43144;50.972;18.220;2023-04-20T04:12:23;117.00;;;80.20;;
57291;SDS011;43144;50.972;18.220;2023-04-20T04:19:45;136.00;;;98.90;;
57291;SDS011;43144;50.972;18.220;2023-04-20T04:29:34;70.90;;;41.40;;
57291;SDS011;43144;50.972;18.220;2023-04-20T04:39:24;121.30;;;70.90;;
57291;SDS011;43144;50.972;18.220;2023-04-20T04:49:13;136.40;;;84.80;;
57291;SDS011;43144;50.972;18.220;2023-04-20T04:59:02;135.00;;;82.10;;
57291;SDS011;43144;50.972;18.220;2023-04-20T05:08:52;150.50;;;85.50;;
57291;SDS011;43144;50.972;18.220;2023-04-20T05:18:41;127.80;;;78.90;;
57291;SDS011;43144;50.972;18.220;2023-04-20T05:28:33;152.70;;;85.10;;
57291;SDS011;43144;50.972;18.220;2023-04-20T05:38:23;103.80;;;68.60;;
57291;SDS011;43144;50.972;18.220;2023-04-20T05:48:12;124.70;;;79.20;;
57291;SDS011;43144;50.972;18.220;2023-04-20T05:58:01;110.20;;;66.70;;
57291;SDS011;43144;50.972;18.220;2023-04-20T06:07:51;74.70;;;54.20;;
57291;SDS011;43144;50.972;18.220;2023-04-20T06:17:40;97.80;;;69.50;;
57291;SDS011;43144;50.972;18.220;2023-04-20T06:27:40;84.40;;;60.70;;
57291;SDS011;43144;50.972;18.220;2023-04-20T06:37:30;87.70;;;60.20;;
57291;SDS011;43144;50.972;18.220;2023-04-20T06:47:19;97.10;;;63.70;;
57291;SDS011;43144;50.972;18.220;2023-04-20T06:57:09;65.60;;;47.60;;
57291;SDS011;43144;50.972;18.220;2023-04-20T07:06:58;91.10;;;54.40;;
57291;SDS011;43144;50.972;18.220;2023-04-20T07:16:50;66.40;;;50.20;;
57291;SDS011;43144;50.972;18.220;2023-04-20T07:26:40;62.20;;;49.10;;
57291;SDS011;43144;50.972;18.220;2023-04-20T07:36:29;79.20;;;48.60;;
57291;SDS011;43144;50.972;18.220;2023-04-20T07:46:20;47.50;;;29.80;;
57291;SDS011;43144;50.972;18.220;2023-04-20T07:56:09;63.90;;;49.20;;
57291;SDS011;43144;50.972;18.220;2023-04-20T08:05:59;56.40;;;44.30;;
57291;SDS011;43144;50.972;18.220;2023-04-20T08:15:50;35.40;;;28.90;;
57291;SDS011;43144;50.972;18.220;2023-04-20T08:25:39;50.80;;;39.90;;
57291;SDS011;43144;50.972;18.220;2023-04-20T08:35:28;44.30;;;37.40;;
57291;SDS011;43144;50.972;18.220;2023-04-20T08:45:18;53.00;;;41.10;;
57291;SDS011;43144;50.972;18.220;2023-04-20T08:55:09;43.40;;;34.20;;
57291;SDS011;43144;50.972;18.220;2023-04-20T09:05:05;65.00;;;36.40;;
57291;SDS011;43144;50.972;18.220;2023-04-20T09:15:06;56.90;;;37.20;;
57291;SDS011;43144;50.972;18.220;2023-04-20T09:24:57;31.00;;;27.70;;
57291;SDS011;43144;50.972;18.220;2023-04-20T09:34:51;36.40;;;29.90;;
57291;SDS011;43144;50.972;18.220;2023-04-20T09:44:41;45.60;;;35.80;;
57291;SDS011;43144;50.972;18.220;2023-04-20T09:54:38;45.70;;;33.20;;
57291;SDS011;43144;50.972;18.220;2023-04-20T10:04:27;37.70;;;31.70;;
57291;SDS011;43144;50.972;18.220;2023-04-20T10:14:30;40.80;;;32.30;;
57291;SDS011;43144;50.972;18.220;2023-04-20T10:24:33;46.30;;;35.30;;
57291;SDS011;43144;50.972;18.220;2023-04-20T10:34:29;40.70;;;31.80;;
57291;SDS011;43144;50.972;18.220;2023-04-20T10:44:28;42.10;;;32.70;;
57291;SDS011;43144;50.972;18.220;2023-04-20T10:54:19;37.60;;;32.20;;
57291;SDS011;43144;50.972;18.220;2023-04-20T11:04:10;39.20;;;32.20;;
57291;SDS011;43144;50.972;18.220;2023-04-20T11:14:10;37.20;;;30.90;;
57291;SDS011;43144;50.972;18.220;2023-04-20T11:24:04;49.90;;;21.00;;
57291;SDS011;43144;50.972;18.220;2023-04-20T11:34:04;19.90;;;12.30;;
57291;SDS011;43144;50.972;18.220;2023-04-20T11:44:01;12.70;;;11.60;;
57291;SDS011;43144;50.972;18.220;2023-04-20T11:53:53;10.70;;;9.90;;
57291;SDS011;43144;50.972;18.220;2023-04-20T12:03:45;21.30;;;8.30;;
57291;SDS011;43144;50.972;18.220;2023-04-20T12:13:34;16.80;;;6.80;;
57291;SDS011;43144;50.972;18.220;2023-04-20T12:23:23;19.70;;;5.90;;
57291;SDS011;43144;50.972;18.220;2023-04-20T12:33:12;18.40;;;7.20;;
57291;SDS011;43144;50.972;18.220;2023-04-20T12:43:02;16.40;;;8.60;;
57291;SDS011;43144;50.972;18.220;2023-04-20T12:52:53;12.20;;;8.10;;
57291;SDS011;43144;50.972;18.220;2023-04-20T13:02:44;10.60;;;9.50;;
57291;SDS011;43144;50.972;18.220;2023-04-20T13:12:34;14.40;;;9.00;;
57291;SDS011;43144;50.972;18.220;2023-04-20T13:22:26;31.10;;;8.80;;
57291;SDS011;43144;50.972;18.220;2023-04-20T13:32:15;14.60;;;8.50;;
57291;SDS011;43144;50.972;18.220;2023-04-20T13:42:05;9.20;;;7.20;;
57291;SDS011;43144;50.972;18.220;2023-04-20T13:59:14;17.80;;;11.40;;
57291;SDS011;43144;50.972;18.220;2023-04-20T14:09:03;7.20;;;6.60;;
57291;SDS011;43144;50.972;18.220;2023-04-20T14:26:13;10.50;;;6.50;;
57291;SDS011;43144;50.972;18.220;2023-04-20T14:36:04;8.80;;;7.10;;
57291;SDS011;43144;50.972;18.220;2023-04-20T14:45:53;11.10;;;7.90;;
57291;SDS011;43144;50.972;18.220;2023-04-20T14:55:44;23.80;;;7.50;;
57291;SDS011;43144;50.972;18.220;2023-04-20T15:05:35;9.70;;;5.70;;
57291;SDS011;43144;50.972;18.220;2023-04-20T15:15:25;12.40;;;2.10;;
57291;SDS011;43144;50.972;18.220;2023-04-20T15:25:15;7.10;;;6.00;;
57291;SDS011;43144;50.972;18.220;2023-04-20T15:35:05;8.10;;;5.20;;
57291;SDS011;43144;50.972;18.220;2023-04-20T15:44:55;5.00;;;4.50;;
57291;SDS011;43144;50.972;18.220;2023-04-20T15:54:44;7.70;;;4.40;;
57291;SDS011;43144;50.972;18.220;2023-04-20T16:14:22;10.80;;;2.60;;
57291;SDS011;43144;50.972;18.220;2023-04-20T16:24:12;4.60;;;3.90;;
57291;SDS011;43144;50.972;18.220;2023-04-20T16:34:01;5.00;;;3.90;;
57291;SDS011;43144;50.972;18.220;2023-04-20T16:43:51;5.10;;;4.20;;
57291;SDS011;43144;50.972;18.220;2023-04-20T16:53:41;5.20;;;4.40;;
57291;SDS011;43144;50.972;18.220;2023-04-20T17:03:30;11.00;;;5.40;;
57291;SDS011;43144;50.972;18.220;2023-04-20T17:13:20;5.80;;;5.10;;
57291;SDS011;43144;50.972;18.220;2023-04-20T17:23:09;9.30;;;5.50;;
57291;SDS011;43144;50.972;18.220;2023-04-20T17:32:58;4.90;;;4.60;;
57291;SDS011;43144;50.972;18.220;2023-04-20T17:42:47;32.40;;;15.90;;
57291;SDS011;43144;50.972;18.220;2023-04-20T17:52:37;26.10;;;16.80;;
57291;SDS011;43144;50.972;18.220;2023-04-20T18:02:28;28.00;;;14.60;;
57291;SDS011;43144;50.972;18.220;2023-04-20T18:12:17;17.20;;;15.40;;
57291;SDS011;43144;50.972;18.220;2023-04-20T18:22:06;15.00;;;13.80;;
57291;SDS011;43144;50.972;18.220;2023-04-20T18:31:55;18.10;;;16.50;;
57291;SDS011;43144;50.972;18.220;2023-04-20T18:41:45;16.80;;;9.50;;
57291;SDS011;43144;50.972;18.220;2023-04-20T18:51:35;21.80;;;16.40;;
57291;SDS011;43144;50.972;18.220;2023-04-20T19:01:24;53.30;;;22.60;;
57291;SDS011;43144;50.972;18.220;2023-04-20T19:11:15;15.10;;;13.40;;
57291;SDS011;43144;50.972;18.220;2023-04-20T19:21:04;17.60;;;12.50;;
57291;SDS011;43144;50.972;18.220;2023-04-20T19:30:54;13.20;;;11.70;;
57291;SDS011;43144;50.972;18.220;2023-04-20T19:40:44;25.80;;;12.70;;
57291;SDS011;43144;50.972;18.220;2023-04-20T19:50:34;17.40;;;15.00;;
57291;SDS011;43144;50.972;18.220;2023-04-20T20:00:23;13.00;;;11.70;;
57291;SDS011;43144;50.972;18.220;2023-04-20T20:07:45;34.10;;;18.00;;
57291;SDS011;43144;50.972;18.220;2023-04-20T20:17:35;14.20;;;12.20;;
57291;SDS011;43144;50.972;18.220;2023-04-20T20:27:25;26.70;;;14.00;;
57291;SDS011;43144;50.972;18.220;2023-04-20T20:37:14;26.70;;;15.60;;
57291;SDS011;43144;50.972;18.220;2023-04-20T20:47:04;26.30;;;19.70;;
57291;SDS011;43144;50.972;18.220;2023-04-20T20:56:53;20.80;;;18.10;;
57291;SDS011;43144;50.972;18.220;2023-04-20T21:06:42;32.60;;;18.10;;
57291;SDS011;43144;50.972;18.220;2023-04-20T21:16:32;22.30;;;19.10;;
57291;SDS011;43144;50.972;18.220;2023-04-20T21:26:21;23.70;;;20.10;;
57291;SDS011;43144;50.972;18.220;2023-04-20T21:36:10;46.70;;;19.20;;
57291;SDS011;43144;50.972;18.220;2023-04-20T21:45:59;18.70;;;16.40;;
57291;SDS011;43144;50.972;18.220;2023-04-20T21:55:48;28.80;;;19.00;;
57291;SDS011;43144;50.972;18.220;2023-04-20T22:05:38;40.90;;;19.80;;
57291;SDS011;43144;50.972;18.220;2023-04-20T22:15:26;22.10;;;19.70;;
57291;SDS011;43144;50.972;18.220;2023-04-20T22:22:49;34.10;;;22.80;;
57291;SDS011;43144;50.972;18.220;2023-04-20T22:32:38;46.40;;;18.70;;
57291;SDS011;43144;50.972;18.220;2023-04-20T22:42:29;39.60;;;21.80;;
57291;SDS011;43144;50.972;18.220;2023-04-20T22:52:18;28.00;;;16.90;;
57291;SDS011;43144;50.972;18.220;2023-04-20T23:02:07;28.80;;;17.20;;
57291;SDS011;43144;50.972;18.220;2023-04-20T23:11:58;22.40;;;15.40;;
57291;SDS011;43144;50.972;18.220;2023-04-20T23:21:47;16.30;;;14.70;;
57291;SDS011;43144;50.972;18.220;2023-04-20T23:31:37;10.30;;;9.40;;
57291;SDS011;43144;50.972;18.220;2023-04-20T23:41:26;23.60;;;16.90;;
57291;SDS011;43144;50.972;18.220;2023-04-20T23:51:16;31.20;;;13.80;;
